Home   Weather   Woodenbong   Past weeks
Flag for Australia

Past Weather in Woodenbong, New South Wales, Australia — Yesterday and Last 2 Weeks

Currently: 77 °F. Mild. (Weather station: MADIS Weather Station E5738 (APRSWXNET), Australia). See more current weather

Past Weather in Woodenbong — Graph

°F

Woodenbong Temperature Yesterday

Maximum temperature yesterday: 76 °F (at 2:30 pm)
Minimum temperature yesterday: 64 °F (at 12:15 am)
Average temperature yesterday: 68 °F

High & Low Weather Summary for the Past Weeks

 TemperatureHumidityPressure
High81 °F (Apr 15, 1:00 pm)95% (Apr 16, 7:00 am)30.06 "Hg (Apr 16, 7:00 am)
Low58 °F (Apr 11, 6:15 am)43% (Apr 11, 1:30 pm)29.47 "Hg (Apr 9, 4:00 pm)
Average69 °F78%29.88 "Hg
* Reported Apr 9 12:00 pm — Apr 24 12:15 pm, Woodenbong. Weather by CustomWeather, © 2024

Note: Actual official high and low records may vary slightly from our data, if they occured in-between our weather recording intervals... More about our weather records

Woodenbong Weather History for the Previous 24 Hours

Scroll right to see more
 ConditionsComfort  
Time TempWeatherWind HumidityBarometerVisibility
12:15 pm
Wed, Apr 24
77 °FMild.2 mph66%29.87 "HgN/A
11:15 am75 °FMild.2 mph73%29.90 "HgN/A
10:45 am74 °FMild.2 mph76%29.91 "HgN/A
10:30 am73 °FMild.3 mph77%29.92 "HgN/A
10:15 am72 °FMild.2 mph78%29.93 "HgN/A
9:30 am70 °FCool.3 mph79%29.94 "HgN/A
9:15 am70 °FCool.3 mph81%29.94 "HgN/A
8:15 am66 °FCool.No wind89%29.93 "HgN/A
8:00 am66 °FCool.1 mph90%29.93 "HgN/A
7:30 am64 °FCool.2 mph92%29.93 "HgN/A
7:15 am63 °FCool.1 mph92%29.93 "HgN/A
5:45 am63 °FCool.No wind91%29.90 "HgN/A
5:15 am63 °FCool.3 mph91%29.88 "HgN/A
4:45 am63 °FCool.5 mph91%29.89 "HgN/A
4:15 am64 °FCool.No wind91%29.89 "HgN/A
4:00 am64 °FCool.1 mph90%29.89 "HgN/A
3:30 am64 °FCool.1 mph90%29.90 "HgN/A
3:15 am64 °FCool.1 mph90%29.90 "HgN/A
2:30 am65 °FCool.No wind90%29.92 "HgN/A
2:15 am65 °FCool.1 mph89%29.92 "HgN/A
2:00 am65 °FCool.2 mph89%29.92 "HgN/A
1:15 am66 °FCool.4 mph88%29.94 "HgN/A
12:45 am66 °FCool.2 mph87%29.95 "HgN/A
12:15 am66 °FCool.1 mph87%29.95 "HgN/A
11:30 pm
Tue, Apr 23
65 °FCool.1 mph87%29.95 "HgN/A
10:45 pm66 °FCool.2 mph87%29.95 "HgN/A
10:15 pm66 °FCool.3 mph87%29.95 "HgN/A
9:45 pm65 °FCool.1 mph89%29.96 "HgN/A
9:00 pm67 °FCool.3 mph86%29.96 "HgN/A
8:30 pm67 °FCool.3 mph84%29.96 "HgN/A
8:00 pm67 °FCool.2 mph84%29.96 "HgN/A
7:15 pm68 °FCool.3 mph82%29.95 "HgN/A
6:30 pm69 °FCool.3 mph78%29.95 "HgN/A
5:45 pm71 °FCool.5 mph76%29.94 "HgN/A
5:15 pm72 °FMild.6 mph74%29.93 "HgN/A
5:00 pm72 °FMild.5 mph72%29.93 "HgN/A
4:45 pm73 °FMild.7 mph69%29.93 "HgN/A
4:30 pm73 °FMild.10 mph67%29.93 "HgN/A
4:15 pm73 °FMild.6 mph68%29.93 "HgN/A
4:00 pm73 °FMild.6 mph70%29.93 "HgN/A
3:15 pm75 °FMild.7 mph68%29.93 "HgN/A
2:30 pm76 °FMild.7 mph65%29.95 "HgN/A
1:45 pm75 °FMild.6 mph65%29.96 "HgN/A
Weather by CustomWeather, © 2024

See weather overview